Airport ID:KCCB
Update Time (UTC):14/08/2018 16:22
Wind Speed (Knots):4
Wind Direction (Magnetic):210
Temperature (°C):22.6
Dew Point (°C):12.4
Humidity (%):51.3
Altimeter (inHg):29.94
Density Altitude (Feet):02800
Visibility (Miles):10
Clouds (Hundreds of feet):CLR
Present Weather:
METAR:METAR KCCB 141620Z AUTO 00000KT 10SM CLR 23/12 A2994 RMK AO2

The data displayed is for advisory purposes only and is not to be used for flight planning or operations.

This page is not automatically refreshed. Reload the page to see current data.